TAF KLAS
AMD KLAS 090856Z 0909/1012 19010G18KT P6SM FEW120 SCT250 TEMPO 0910/0914 19009KT FM091400 20014G23KT P6SM VCSH FEW050 BKN080 FM091800 22020G30KT P6SM -SHRA SCT030 BKN050 OVC080 PROB30 0919/0923 6SM -RA SCT020 BKN040 FM100200 26008KT P6SM VCSH SCT050 BKN080 FM100600 21006KT P6SM SCT080 BKN120 ?
METAR KLAS
KLAS 090956Z 20011KT 10SM FEW090 BKN250 14/03 A2980 RMK AO2 SLP078 T01440028 ?
KLAS 090856Z 19010G17KT 10SM FEW090 SCT250 14/02 A2980 RMK AO2 SLP080 T01390022 57018 ?
KLAS 090756Z VRB03KT 10SM SCT250 13/02 A2982 RMK AO2 SLP088 T01280017 401890094 ?
KLAS 090656Z VRB05KT 10SM FEW120 SCT250 13/02 A2983 RMK AO2 SLP093 T01280017 ?
KLAS 090556Z 18004KT 10SM FEW120 SCT250 13/02 A2986 RMK AO2 SLP102 T01280022 10178 20128 57011 ?
WC KLAS
WS KLAS
WV KLAS